South Windham, CT (06266)

12:22 AM EDT on May 26, 2015 (GMT -0400)
Intersection of Pleasure Hill Road and Hyde Park Road | | Change Station
CLOSE
Current Station
Personal Weather Station
Location: Franklin, CT
Elevation: 492 ft
Nearby Weather Stations

Elev 492 ft 41.65 °N, 72.14 °W | Updated 39 seconds ago

Partly Cloudy
Partly Cloudy
63.7 °F
Feels Like 63.7 °F
N
2.2
Wind Variable Wind from SW

Today
High -- | Low -- °F
--% Chance of Precip.
Yesterday
High -- | Low -- °F
Precip. -- in
5:20 AM 8:11 PM
First Quarter, 54% visible
Pressure 30.19 in
Visibility 10.0 miles
Clouds Clear
Dew Point 52 °F
Humidity 67%
Rainfall 0.00 in
Snow Depth Not available.
UV 0 out of 12
Pollen 8.90 out of 12
Air Quality Not available.
Flu Activity Regional
METAR KIJD 260352Z AUTO 19006KT 10SM CLR 20/13 A3019 RMK AO2 SLP221 T02000128

More Conditions Fewer Conditions

Pressure 30.19 in
Visibility 10.0 miles
Clouds Clear
Dew Point 52 °F
Humidity 67%
Rainfall 0.00 in
Snow Depth Not available.
UV 0 out of 12
Pollen 8.90 out of 12
Air Quality Not available.
Flu Activity Regional
METAR KIJD 260352Z AUTO 19006KT 10SM CLR 20/13 A3019 RMK AO2 SLP221 T02000128

More Conditions Fewer Conditions

10-Day Weather Forecast

Almanac

Astronomy

May. 26, 2015 Rise Set
Actual Time
Civil Twilight
Nautical Twilight
Astronomical Twilight
Moon
Length of Visible Light
Length of Day
Tomorrow will be .
, % of the Moon is Illuminated

Today's Extremes

State Highs State Lows

Community

WunderPhotos

Upload Photos

1,824,277 photos uploaded!

WunderBlogs® & News

Nearby

Air Quality

  Air Quality AQ Index Pollutant
Not available.

Snow Depth

Station Depth Elevation

Earthquake Activity

City Distance Mag. Time & Date
Minimum magnitude displayed is 2.5.

Coastal Water Temperatures

Place Temperature

Stations

Nearby Weather Stations

Station Location Temp. Windchill Dew Point Humidity Wind Precip. Elev Updated Type